Time;durP1;ratioP1;P1;durP2;ratioP2;P2;SDS_P1;SDS_P2;PMS_P1;PMS_P2;Temp;Humidity;BMP_temperature;BMP_pressure;BME280_temperature;BME280_humidity;BME280_pressure;Samples;Min_cycle;Max_cycle;Signal;HPM_P1;HPM_P2
2022/07/18 00:01:02;;;;;;;11.85;8.68;;;15.40;99.90;;;;;;5015492;28;20092;-70
2022/07/18 00:03:28;;;;;;;13.65;8.80;;;15.30;99.90;;;;;;5055651;28;20290;-70
2022/07/18 00:05:53;;;;;;;13.20;7.75;;;15.20;99.90;;;;;;5051740;28;20108;-70
2022/07/18 00:08:19;;;;;;;12.60;7.72;;;15.20;99.90;;;;;;5055496;28;20529;-70
2022/07/18 00:10:45;;;;;;;11.93;8.27;;;15.10;99.90;;;;;;5048827;28;20071;-70
2022/07/18 00:13:11;;;;;;;11.98;7.88;;;15.10;99.90;;;;;;5053417;28;20405;-70
2022/07/18 00:15:37;;;;;;;9.80;6.53;;;15.10;99.90;;;;;;5054377;28;20048;-70
2022/07/18 00:18:03;;;;;;;9.10;6.75;;;15.10;99.90;;;;;;5050866;28;20087;-70
2022/07/18 00:20:29;;;;;;;13.00;7.75;;;15.00;99.90;;;;;;5066322;28;20041;-70
2022/07/18 00:22:55;;;;;;;9.80;7.15;;;14.90;99.90;;;;;;5056027;28;20037;-70
2022/07/18 00:25:21;;;;;;;12.15;7.35;;;14.90;99.90;;;;;;5066802;28;20044;-70
2022/07/18 00:27:47;;;;;;;13.15;7.40;;;14.90;99.90;;;;;;5066054;28;20064;-70
2022/07/18 00:30:13;;;;;;;13.48;6.43;;;14.80;99.90;;;;;;5051471;28;20041;-70
2022/07/18 00:32:39;;;;;;;11.55;6.75;;;14.90;99.90;;;;;;5054382;28;20140;-70
2022/07/18 00:35:06;;;;;;;9.52;6.45;;;14.80;99.90;;;;;;5049026;28;20049;-70
2022/07/18 00:37:32;;;;;;;8.90;6.07;;;14.80;99.90;;;;;;5067727;28;20076;-70
2022/07/18 00:39:57;;;;;;;9.82;6.88;;;14.70;99.90;;;;;;5086873;28;20049;-70
2022/07/18 00:42:23;;;;;;;9.77;5.95;;;14.60;99.90;;;;;;5072681;28;20081;-70
2022/07/18 00:44:54;;;;;;;9.30;5.70;;;14.50;99.90;;;;;;5072006;28;20052;-70
2022/07/18 00:47:20;;;;;;;9.60;5.68;;;14.30;99.90;;;;;;5066960;28;20049;-70
2022/07/18 00:49:45;;;;;;;9.13;6.10;;;14.20;99.90;;;;;;5076903;28;20044;-70
2022/07/18 00:52:12;;;;;;;9.68;6.15;;;14.10;99.90;;;;;;5072200;28;20052;-70
2022/07/18 00:54:38;;;;;;;10.52;6.68;;;14.10;99.90;;;;;;5078902;28;20048;-70
2022/07/18 00:57:05;;;;;;;8.88;6.43;;;14.00;99.90;;;;;;5034396;28;20047;-70
2022/07/18 01:02:16;;;;;;;7.95;5.82;;;14.00;99.90;;;;;;5069854;28;20049;-69
2022/07/18 01:04:42;;;;;;;9.65;5.85;;;14.10;99.90;;;;;;5070715;28;20074;-70
2022/07/18 01:07:09;;;;;;;10.88;6.00;;;14.10;99.90;;;;;;5074845;28;20059;-70
2022/07/18 01:09:35;;;;;;;9.57;6.13;;;14.00;99.90;;;;;;5070681;28;20079;-70
2022/07/18 01:12:01;;;;;;;8.98;6.30;;;14.10;99.90;;;;;;5069879;28;20033;-70
2022/07/18 01:14:27;;;;;;;9.77;5.90;;;14.20;99.90;;;;;;5056364;28;20056;-70
2022/07/18 01:16:53;;;;;;;9.98;6.72;;;14.10;99.90;;;;;;5073061;28;20044;-70
2022/07/18 01:19:19;;;;;;;8.48;6.07;;;14.00;99.90;;;;;;5067390;28;20055;-70
2022/07/18 01:21:44;;;;;;;9.02;6.30;;;13.90;99.90;;;;;;5073473;28;20045;-70
2022/07/18 01:24:10;;;;;;;10.88;6.60;;;13.70;99.90;;;;;;5084343;28;20052;-70
2022/07/18 01:26:36;;;;;;;11.57;6.35;;;13.70;99.90;;;;;;5079509;28;20170;-69
2022/07/18 01:29:02;;;;;;;8.02;5.68;;;13.60;99.90;;;;;;5066130;28;20044;-70
2022/07/18 01:31:33;;;;;;;10.57;6.28;;;13.50;99.90;;;;;;5063153;28;20150;-70
2022/07/18 01:33:59;;;;;;;9.63;6.60;;;13.50;99.90;;;;;;5064007;28;20095;-70
2022/07/18 01:36:25;;;;;;;8.40;5.65;;;13.50;99.90;;;;;;5046528;28;20055;-70
2022/07/18 01:38:51;;;;;;;8.90;5.90;;;13.40;99.90;;;;;;5067577;28;20052;-70
2022/07/18 01:41:17;;;;;;;8.52;5.78;;;13.30;99.90;;;;;;5059067;28;20105;-70
2022/07/18 01:43:43;;;;;;;9.40;6.45;;;13.30;99.90;;;;;;5079422;28;20059;-70
2022/07/18 01:46:12;;;;;;;8.25;5.75;;;13.30;99.90;;;;;;5060960;28;20049;-70
2022/07/18 01:48:38;;;;;;;9.60;5.40;;;13.30;99.90;;;;;;5062575;28;20072;-70
2022/07/18 01:51:04;;;;;;;9.18;5.68;;;13.20;99.90;;;;;;5066549;28;20048;-70
2022/07/18 01:53:30;;;;;;;8.38;5.85;;;13.10;99.90;;;;;;5063419;28;20048;-70
2022/07/18 01:55:56;;;;;;;9.90;6.57;;;13.20;99.90;;;;;;5081839;28;20052;-70
2022/07/18 01:58:22;;;;;;;7.85;5.63;;;13.20;99.90;;;;;;5066757;28;20036;-70
2022/07/18 02:00:47;;;;;;;11.27;6.85;;;13.30;99.90;;;;;;5072611;28;20056;-70
2022/07/18 02:03:13;;;;;;;10.25;6.30;;;13.30;99.90;;;;;;5064401;28;20143;-70
2022/07/18 02:05:39;;;;;;;10.93;6.15;;;13.20;99.90;;;;;;5051932;28;20072;-70
2022/07/18 02:08:05;;;;;;;8.80;6.03;;;13.20;99.90;;;;;;5070674;28;20178;-70
2022/07/18 02:10:31;;;;;;;9.63;6.03;;;13.20;99.90;;;;;;5052363;28;20120;-70
2022/07/18 02:12:56;;;;;;;8.48;5.95;;;13.20;99.90;;;;;;5062965;28;20044;-70
2022/07/18 02:15:22;;;;;;;8.57;5.93;;;13.20;99.90;;;;;;5062661;28;20052;-70
2022/07/18 02:17:48;;;;;;;12.20;6.60;;;13.10;99.90;;;;;;5063046;28;20511;-70
2022/07/18 02:20:14;;;;;;;9.27;5.85;;;12.90;99.90;;;;;;5078971;28;20052;-70
2022/07/18 02:22:40;;;;;;;8.95;6.07;;;13.00;99.90;;;;;;5067007;28;20041;-70
2022/07/18 02:25:07;;;;;;;9.82;6.38;;;13.00;99.90;;;;;;5068093;28;20049;-70
2022/07/18 02:27:33;;;;;;;11.35;6.68;;;13.10;99.90;;;;;;5067204;28;20044;-70
2022/07/18 02:29:59;;;;;;;10.65;7.30;;;13.10;99.90;;;;;;5071356;28;20056;-70
2022/07/18 02:32:24;;;;;;;9.82;6.78;;;13.10;99.90;;;;;;5064223;28;20045;-70
2022/07/18 02:34:50;;;;;;;11.35;7.65;;;13.10;99.90;;;;;;5084416;28;20048;-70
2022/07/18 02:37:16;;;;;;;8.40;6.55;;;13.10;99.90;;;;;;5066108;28;20074;-70
2022/07/18 02:39:42;;;;;;;11.45;7.45;;;13.10;99.90;;;;;;5050121;28;20481;-70
2022/07/18 02:42:08;;;;;;;9.40;6.43;;;13.00;99.90;;;;;;5066911;28;20040;-70
2022/07/18 02:44:33;;;;;;;11.38;7.20;;;13.00;99.90;;;;;;5089099;28;20044;-70
2022/07/18 02:46:59;;;;;;;10.73;6.88;;;13.10;99.90;;;;;;5072694;28;20076;-70
2022/07/18 02:49:28;;;;;;;10.82;6.75;;;13.00;99.90;;;;;;5078916;28;20055;-70
2022/07/18 02:52:01;;;;;;;9.05;6.63;;;13.00;99.90;;;;;;5056512;28;20037;-70
2022/07/18 02:54:29;;;;;;;13.95;7.90;;;12.90;99.90;;;;;;5079848;28;20446;-70
2022/07/18 02:56:54;;;;;;;10.90;7.25;;;12.80;99.90;;;;;;5079478;28;20100;-70
2022/07/18 02:59:21;;;;;;;14.48;8.20;;;12.80;99.90;;;;;;5073166;28;20048;-70
2022/07/18 03:01:48;;;;;;;12.13;7.68;;;12.80;99.90;;;;;;5073066;28;20048;-70
2022/07/18 03:04:15;;;;;;;10.18;6.97;;;12.80;99.90;;;;;;5070848;28;20044;-70
2022/07/18 03:06:40;;;;;;;10.73;7.25;;;12.70;99.90;;;;;;5091383;28;20044;-70
2022/07/18 03:09:06;;;;;;;12.10;7.93;;;12.60;99.90;;;;;;5076284;28;20052;-70
2022/07/18 03:11:32;;;;;;;12.18;8.20;;;12.60;99.90;;;;;;5073073;28;20045;-70
2022/07/18 03:13:58;;;;;;;11.38;7.40;;;12.60;99.90;;;;;;5073357;28;20048;-70
2022/07/18 03:16:23;;;;;;;10.40;7.10;;;12.60;99.90;;;;;;5074482;28;20053;-70
2022/07/18 03:18:49;;;;;;;10.35;6.60;;;12.60;99.90;;;;;;5070409;28;20084;-70
2022/07/18 03:21:15;;;;;;;13.55;7.20;;;12.60;99.90;;;;;;5072912;28;20120;-70
2022/07/18 03:23:41;;;;;;;11.35;7.68;;;12.60;99.90;;;;;;5073169;28;20046;-70
2022/07/18 03:26:06;;;;;;;10.70;7.43;;;12.60;99.90;;;;;;5076970;28;20108;-70
2022/07/18 03:28:32;;;;;;;13.63;7.25;;;12.60;99.90;;;;;;5073163;28;20040;-70
2022/07/18 03:30:58;;;;;;;11.80;8.00;;;12.50;99.90;;;;;;5079251;28;20059;-70
2022/07/18 03:33:25;;;;;;;14.65;7.93;;;12.50;99.90;;;;;;5072847;28;20055;-70
2022/07/18 03:35:51;;;;;;;11.88;7.22;;;12.60;99.90;;;;;;5075452;28;20056;-70
2022/07/18 03:38:16;;;;;;;15.82;7.47;;;12.70;99.90;;;;;;5086867;28;20048;-70
2022/07/18 03:40:42;;;;;;;12.88;7.13;;;12.70;99.90;;;;;;5078763;28;20094;-70
2022/07/18 03:43:08;;;;;;;12.82;7.90;;;12.70;99.90;;;;;;5090627;28;20500;-70
2022/07/18 03:45:33;;;;;;;13.00;7.43;;;12.70;99.90;;;;;;5089508;28;20040;-70
2022/07/18 03:47:59;;;;;;;11.38;7.95;;;12.70;99.90;;;;;;5058158;28;20051;-70
2022/07/18 03:50:27;;;;;;;12.05;8.30;;;12.70;99.90;;;;;;5069326;28;20040;-70
2022/07/18 03:52:53;;;;;;;15.63;9.95;;;12.80;99.90;;;;;;5074811;28;20055;-69
2022/07/18 03:55:19;;;;;;;16.42;10.38;;;13.00;99.90;;;;;;5084186;28;20044;-70
2022/07/18 03:57:46;;;;;;;16.48;11.32;;;13.20;99.90;;;;;;5068437;28;20048;-70
2022/07/18 04:00:12;;;;;;;16.70;10.75;;;13.50;99.90;;;;;;5065022;28;20064;-70
2022/07/18 04:02:40;;;;;;;17.95;11.20;;;13.70;99.90;;;;;;5070103;28;20048;-70
2022/07/18 04:05:06;;;;;;;17.05;10.25;;;13.90;99.90;;;;;;5077886;28;20443;-70
2022/07/18 04:07:31;;;;;;;16.55;9.82;;;14.10;99.90;;;;;;5064644;28;20033;-69
2022/07/18 04:09:57;;;;;;;16.50;10.35;;;14.30;99.90;;;;;;5087327;28;20048;-70
2022/07/18 04:12:23;;;;;;;14.55;10.15;;;14.20;99.90;;;;;;5087267;28;20611;-70
2022/07/18 04:14:48;;;;;;;16.80;10.23;;;14.20;99.90;;;;;;5052169;28;20805;-70
2022/07/18 04:17:14;;;;;;;14.40;9.15;;;14.10;99.90;;;;;;5073529;28;20127;-69
2022/07/18 04:19:40;;;;;;;13.55;9.55;;;14.00;99.90;;;;;;5069644;28;20049;-69
2022/07/18 04:22:05;;;;;;;15.77;8.73;;;13.80;99.90;;;;;;5063364;28;20037;-69
2022/07/18 04:24:31;;;;;;;13.48;8.50;;;13.70;99.90;;;;;;5069706;28;20045;-70
2022/07/18 04:26:57;;;;;;;14.07;8.65;;;13.60;99.90;;;;;;5065012;28;20044;-69
2022/07/18 04:29:22;;;;;;;14.52;8.93;;;13.50;99.90;;;;;;5072490;28;20040;-70
2022/07/18 04:31:48;;;;;;;18.33;9.88;;;13.40;99.90;;;;;;5069223;28;20493;-69
2022/07/18 04:34:14;;;;;;;16.58;8.95;;;13.40;99.90;;;;;;5068602;28;20040;-70
2022/07/18 04:36:39;;;;;;;18.27;8.77;;;13.40;99.90;;;;;;5069553;28;20072;-69
2022/07/18 04:39:05;;;;;;;14.77;9.13;;;13.50;99.90;;;;;;5058475;28;20048;-69
2022/07/18 04:41:31;;;;;;;16.52;9.18;;;13.50;99.90;;;;;;5075318;28;20051;-69
2022/07/18 04:43:57;;;;;;;14.60;8.95;;;13.60;99.90;;;;;;5079106;28;20108;-70
2022/07/18 04:46:22;;;;;;;15.38;10.35;;;13.70;99.90;;;;;;5066958;28;20048;-69
2022/07/18 04:48:48;;;;;;;18.10;9.00;;;13.80;99.90;;;;;;5068468;28;20108;-69
2022/07/18 04:51:14;;;;;;;16.23;9.88;;;14.00;99.90;;;;;;5074821;28;20053;-70
2022/07/18 04:53:39;;;;;;;16.52;9.80;;;14.20;99.90;;;;;;5068431;28;20051;-70
2022/07/18 04:56:05;;;;;;;16.50;9.70;;;14.30;99.90;;;;;;5064962;28;20040;-69
2022/07/18 04:58:31;;;;;;;16.58;9.73;;;14.50;99.90;;;;;;5069143;28;20036;-71
2022/07/18 05:00:56;;;;;;;17.20;9.38;;;14.60;99.90;;;;;;5069981;28;20071;-70
2022/07/18 05:03:22;;;;;;;13.60;9.18;;;14.70;99.90;;;;;;5068491;28;20520;-71
2022/07/18 05:05:48;;;;;;;15.07;9.93;;;14.80;99.90;;;;;;5051166;28;20571;-70
2022/07/18 05:08:14;;;;;;;15.52;9.63;;;14.90;99.90;;;;;;5081774;28;20041;-70
2022/07/18 05:10:40;;;;;;;11.80;8.65;;;15.00;99.90;;;;;;5052105;28;20053;-70
2022/07/18 05:13:05;;;;;;;12.55;8.77;;;15.10;99.90;;;;;;5068288;28;20040;-70
2022/07/18 05:15:31;;;;;;;15.27;8.95;;;15.20;99.90;;;;;;5068067;28;20048;-71
2022/07/18 05:17:57;;;;;;;11.25;8.05;;;15.30;99.90;;;;;;5075254;28;20048;-70
2022/07/18 05:20:24;;;;;;;14.25;9.10;;;15.40;99.90;;;;;;5069229;28;20037;-71
2022/07/18 05:22:51;;;;;;;12.73;8.10;;;15.50;99.90;;;;;;5075298;28;20052;-70
2022/07/18 05:25:17;;;;;;;12.68;8.30;;;15.60;99.90;;;;;;5080705;28;20067;-71
2022/07/18 05:27:43;;;;;;;10.45;7.20;;;15.70;99.90;;;;;;5074266;28;20044;-70
2022/07/18 05:30:11;;;;;;;13.10;7.97;;;15.80;99.90;;;;;;5073843;28;20124;-70
2022/07/18 05:32:38;;;;;;;11.77;6.68;;;15.90;99.90;;;;;;5070330;28;20032;-71
2022/07/18 05:35:05;;;;;;;11.45;6.70;;;16.00;99.90;;;;;;5067126;28;20407;-71
2022/07/18 05:37:31;;;;;;;12.25;6.68;;;16.10;99.90;;;;;;5076012;28;20421;-71
2022/07/18 05:39:57;;;;;;;10.80;6.40;;;16.20;99.90;;;;;;5075384;28;20078;-70
2022/07/18 05:42:22;;;;;;;15.20;5.90;;;16.20;99.90;;;;;;5050932;28;20040;-70
2022/07/18 05:44:48;;;;;;;13.15;6.47;;;16.30;99.90;;;;;;5067521;28;20136;-71
2022/07/18 05:47:14;;;;;;;12.90;6.15;;;16.30;99.90;;;;;;5081497;28;20134;-70
2022/07/18 05:49:40;;;;;;;11.85;6.13;;;16.40;99.90;;;;;;5062283;28;20162;-70
2022/07/18 05:52:06;;;;;;;8.48;5.35;;;16.40;99.90;;;;;;5062322;28;20067;-70
2022/07/18 05:54:32;;;;;;;9.05;4.90;;;16.50;99.90;;;;;;5053482;28;20033;-70
2022/07/18 05:56:58;;;;;;;11.98;5.35;;;16.60;99.90;;;;;;5068405;28;20106;-71
2022/07/18 05:59:23;;;;;;;9.75;4.70;;;16.60;99.90;;;;;;5052083;28;20052;-71
2022/07/18 06:01:49;;;;;;;9.70;5.15;;;16.70;99.90;;;;;;5051164;28;20056;-70
2022/07/18 06:04:15;;;;;;;9.02;5.15;;;16.80;99.90;;;;;;5068664;28;20041;-70
2022/07/18 06:06:41;;;;;;;8.73;5.03;;;16.80;99.90;;;;;;5057769;28;20049;-70
2022/07/18 06:09:08;;;;;;;11.43;4.70;;;16.90;99.90;;;;;;5059928;28;20374;-70
2022/07/18 06:11:34;;;;;;;7.55;5.03;;;17.00;99.90;;;;;;5069788;28;20041;-71
2022/07/18 06:14:02;;;;;;;10.32;5.70;;;17.10;99.90;;;;;;5036772;28;20078;-71
2022/07/18 06:16:29;;;;;;;11.32;5.85;;;17.20;99.90;;;;;;5075114;28;20040;-70
2022/07/18 06:18:54;;;;;;;10.60;5.78;;;17.30;99.90;;;;;;5079181;28;20575;-70
2022/07/18 06:21:20;;;;;;;8.75;5.80;;;17.50;99.90;;;;;;5070724;28;20068;-71
2022/07/18 06:23:46;;;;;;;9.57;5.15;;;17.50;99.90;;;;;;5079881;28;20053;-71
2022/07/18 06:26:12;;;;;;;7.22;4.55;;;17.60;99.90;;;;;;5069739;28;20041;-70
2022/07/18 06:28:37;;;;;;;10.20;4.88;;;17.90;99.90;;;;;;5048333;28;20049;-70
2022/07/18 06:31:03;;;;;;;13.52;4.93;;;17.80;99.90;;;;;;5072197;28;20048;-70
2022/07/18 06:33:29;;;;;;;7.88;4.80;;;18.10;99.90;;;;;;5050690;28;20040;-70
2022/07/18 06:35:54;;;;;;;9.60;4.60;;;18.20;99.90;;;;;;5074582;28;20057;-70
2022/07/18 06:38:20;;;;;;;12.13;4.20;;;18.30;99.90;;;;;;5065792;28;20104;-70
2022/07/18 06:40:46;;;;;;;7.13;4.15;;;18.40;99.90;;;;;;5079929;28;20554;-70
2022/07/18 06:43:13;;;;;;;8.88;4.53;;;18.40;99.90;;;;;;5059291;28;20101;-70
2022/07/18 06:45:39;;;;;;;8.60;3.83;;;18.50;99.90;;;;;;5045876;28;20511;-71
2022/07/18 06:48:05;;;;;;;8.10;4.53;;;18.50;99.90;;;;;;5066367;28;20063;-71
2022/07/18 06:50:30;;;;;;;6.63;3.47;;;18.50;99.90;;;;;;5064641;28;20051;-72
2022/07/18 06:52:56;;;;;;;8.43;3.80;;;18.50;99.90;;;;;;5066405;28;20123;-71
2022/07/18 06:55:22;;;;;;;7.88;3.78;;;18.60;99.90;;;;;;5084692;28;20040;-72
2022/07/18 06:57:48;;;;;;;7.80;3.28;;;18.60;99.90;;;;;;5059688;28;20045;-71
2022/07/18 07:00:14;;;;;;;9.30;3.05;;;18.60;99.90;;;;;;5052147;28;20044;-71
2022/07/18 07:02:43;;;;;;;6.45;2.72;;;18.70;99.90;;;;;;5057994;28;20098;-71
2022/07/18 07:05:09;;;;;;;4.38;2.80;;;18.70;99.90;;;;;;5076496;28;20055;-71
2022/07/18 07:07:35;;;;;;;9.20;3.10;;;18.70;99.90;;;;;;5077961;28;20060;-71
2022/07/18 07:10:00;;;;;;;9.40;2.78;;;18.80;99.90;;;;;;5066319;28;20488;-71
2022/07/18 07:12:26;;;;;;;6.53;2.80;;;19.00;99.90;;;;;;5060821;28;20127;-71
2022/07/18 07:14:52;;;;;;;7.57;2.72;;;19.20;99.90;;;;;;5075428;28;20044;-70
2022/07/18 07:17:18;;;;;;;6.93;2.78;;;19.20;99.90;;;;;;5056873;28;20237;-70
2022/07/18 07:19:43;;;;;;;7.53;2.65;;;19.30;99.90;;;;;;5057222;28;20052;-70
2022/07/18 07:22:09;;;;;;;9.70;2.78;;;19.40;99.90;;;;;;5079799;28;20049;-71
2022/07/18 07:24:36;;;;;;;7.30;2.67;;;19.40;99.90;;;;;;5059139;28;20051;-71
2022/07/18 07:27:02;;;;;;;5.05;2.10;;;19.60;99.90;;;;;;5057371;28;20129;-71
2022/07/18 07:29:28;;;;;;;5.10;2.53;;;19.80;99.90;;;;;;5063073;28;20044;-68
2022/07/18 07:31:53;;;;;;;5.75;2.08;;;19.70;99.90;;;;;;5086925;28;20033;-68
2022/07/18 07:34:19;;;;;;;5.60;2.40;;;19.70;99.90;;;;;;5068097;28;20044;-68
2022/07/18 07:36:45;;;;;;;4.38;2.53;;;19.80;99.90;;;;;;5096985;28;20074;-68
2022/07/18 07:39:11;;;;;;;5.00;2.00;;;20.00;99.90;;;;;;5069065;28;20044;-68
2022/07/18 07:41:36;;;;;;;5.47;2.33;;;20.10;99.90;;;;;;5093967;28;20096;-68
2022/07/18 07:44:02;;;;;;;3.60;1.80;;;20.20;99.90;;;;;;5096149;28;20037;-68
2022/07/18 07:46:28;;;;;;;4.05;2.55;;;20.40;99.90;;;;;;5070981;28;20070;-68
2022/07/18 07:48:53;;;;;;;4.93;1.95;;;20.50;99.90;;;;;;5090329;28;20051;-68
2022/07/18 07:51:19;;;;;;;4.65;2.03;;;20.60;99.90;;;;;;5072311;28;20044;-68
2022/07/18 07:53:45;;;;;;;7.88;2.42;;;20.80;99.90;;;;;;5068483;28;20045;-68
2022/07/18 07:56:10;;;;;;;5.65;2.20;;;21.00;99.90;;;;;;5092937;28;20055;-67
2022/07/18 07:58:36;;;;;;;3.97;2.10;;;21.20;99.90;;;;;;5096374;28;20043;-65
2022/07/18 08:01:02;;;;;;;7.63;2.60;;;21.30;99.90;;;;;;5005188;28;20063;-65
2022/07/18 08:03:29;;;;;;;4.28;2.33;;;21.40;99.90;;;;;;5048412;28;20052;-64
2022/07/18 08:05:55;;;;;;;5.47;2.20;;;21.40;99.90;;;;;;5051376;28;20052;-64
2022/07/18 08:08:21;;;;;;;8.23;2.50;;;21.50;99.90;;;;;;5063713;28;20075;-64
2022/07/18 08:10:47;;;;;;;6.00;2.20;;;21.50;99.90;;;;;;5066344;28;20051;-65
2022/07/18 08:13:13;;;;;;;4.93;2.00;;;21.50;99.90;;;;;;5047177;28;20055;-65
2022/07/18 08:15:40;;;;;;;6.97;2.97;;;21.50;99.90;;;;;;5056186;28;20048;-64
2022/07/18 08:18:05;;;;;;;4.30;2.17;;;21.40;99.90;;;;;;5050625;28;20041;-65
2022/07/18 08:20:33;;;;;;;4.53;2.22;;;21.40;99.90;;;;;;5056908;28;20119;-66
2022/07/18 08:23:07;;;;;;;9.55;2.75;;;21.40;99.90;;;;;;5053863;28;20083;-65
2022/07/18 08:25:35;;;;;;;14.30;2.75;;;21.50;99.90;;;;;;5081348;28;20054;-64
2022/07/18 08:28:01;;;;;;;6.45;3.10;;;21.70;99.90;;;;;;5049587;28;20056;-65
2022/07/18 08:30:28;;;;;;;7.25;2.13;;;21.80;99.90;;;;;;5065184;28;20071;-64
2022/07/18 08:32:54;;;;;;;5.63;2.35;;;21.80;99.90;;;;;;5051076;28;20588;-65
2022/07/18 08:35:19;;;;;;;7.93;2.70;;;22.00;99.90;;;;;;5060764;28;20471;-65
2022/07/18 08:37:45;;;;;;;6.05;2.20;;;22.10;99.90;;;;;;5056409;28;20048;-65
2022/07/18 08:40:12;;;;;;;5.75;2.10;;;22.20;99.90;;;;;;5062426;28;20072;-65
2022/07/18 08:42:38;;;;;;;4.07;2.08;;;22.30;99.90;;;;;;5055231;28;20138;-66
2022/07/18 08:45:05;;;;;;;4.85;2.40;;;22.50;99.90;;;;;;5063540;28;20036;-65
2022/07/18 08:47:31;;;;;;;5.22;1.90;;;22.50;99.90;;;;;;5054812;28;20105;-65
2022/07/18 08:49:59;;;;;;;8.45;2.30;;;22.60;99.90;;;;;;5054792;28;20052;-65
2022/07/18 08:52:26;;;;;;;4.85;2.28;;;22.80;99.90;;;;;;5040237;28;20053;-65
2022/07/18 08:54:52;;;;;;;3.80;1.90;;;22.90;99.90;;;;;;5041797;28;20082;-65
2022/07/18 08:57:18;;;;;;;5.45;1.80;;;23.10;99.90;;;;;;5039468;28;20104;-65
2022/07/18 08:59:44;;;;;;;7.32;2.17;;;23.30;99.90;;;;;;5041852;28;20046;-65
2022/07/18 09:02:10;;;;;;;4.30;2.00;;;23.30;99.90;;;;;;5061739;28;20060;-65
2022/07/18 09:04:38;;;;;;;4.15;2.08;;;23.30;99.90;;;;;;5041032;28;20053;-66
2022/07/18 09:07:05;;;;;;;4.97;2.20;;;23.30;99.90;;;;;;5058010;28;20037;-65
2022/07/18 09:09:31;;;;;;;7.40;2.60;;;23.50;99.90;;;;;;5042288;28;20079;-65
2022/07/18 09:12:02;;;;;;;3.08;1.63;;;23.60;99.90;;;;;;5074505;28;20037;-65
2022/07/18 09:14:35;;;;;;;7.07;2.03;;;23.80;99.90;;;;;;5025680;28;20414;-65
2022/07/18 09:17:19;;;;;;;4.00;1.50;;;23.80;99.90;;;;;;5049389;28;20134;-66
2022/07/18 09:20:03;;;;;;;3.38;1.70;;;23.80;99.90;;;;;;5034547;28;20045;-65
2022/07/18 09:22:49;;;;;;;9.45;2.35;;;23.90;99.20;;;;;;5061646;28;20053;-66
2022/07/18 09:25:16;;;;;;;4.28;1.90;;;23.80;99.40;;;;;;5053793;28;20047;-66
2022/07/18 09:27:45;;;;;;;5.93;2.38;;;23.80;99.90;;;;;;5041117;28;20053;-65
2022/07/18 09:30:11;;;;;;;4.93;1.90;;;23.80;99.90;;;;;;5054259;28;20071;-65
2022/07/18 09:32:39;;;;;;;4.40;1.77;;;23.80;99.90;;;;;;5045957;28;20044;-66
2022/07/18 09:35:10;;;;;;;3.85;1.80;;;23.90;99.90;;;;;;5040016;28;20102;-66
2022/07/18 09:37:36;;;;;;;6.82;2.20;;;23.90;99.90;;;;;;5045568;28;20041;-65
2022/07/18 09:40:24;;;;;;;6.55;2.00;;;24.00;99.90;;;;;;5047329;28;20758;-65
2022/07/18 09:42:51;;;;;;;3.75;1.73;;;24.10;98.90;;;;;;5039295;28;20439;-65
2022/07/18 09:45:25;;;;;;;4.82;1.92;;;24.10;99.70;;;;;;5057665;28;20065;-65
2022/07/18 09:48:12;;;;;;;6.20;1.90;;;24.10;99.10;;;;;;5047180;28;20052;-65
2022/07/18 09:50:40;;;;;;;4.95;2.10;;;24.10;98.50;;;;;;5047254;28;20037;-65
2022/07/18 09:53:14;;;;;;;5.78;2.20;;;24.20;99.20;;;;;;5043360;28;20041;-65
2022/07/18 09:55:49;;;;;;;4.38;1.83;;;24.40;98.70;;;;;;5051360;28;20046;-65
2022/07/18 09:58:23;;;;;;;5.97;2.28;;;24.40;98.50;;;;;;5045931;28;20069;-65
2022/07/18 10:00:49;;;;;;;3.47;1.75;;;24.70;97.60;;;;;;5013268;28;20049;-65
2022/07/18 10:03:16;;;;;;;4.45;2.10;;;24.60;98.00;;;;;;5036976;28;20051;-65
2022/07/18 10:05:44;;;;;;;3.95;2.05;;;24.60;98.20;;;;;;5037690;28;20576;-67
2022/07/18 10:08:12;;;;;;;4.22;1.90;;;24.60;97.80;;;;;;5024218;28;20124;-76
2022/07/18 10:10:40;;;;;;;5.20;2.30;;;24.70;96.50;;;;;;5039051;28;20552;-68
2022/07/18 10:13:07;;;;;;;7.70;2.75;;;24.80;96.10;;;;;;5025803;28;20048;-68
2022/07/18 10:15:35;;;;;;;6.53;2.10;;;24.90;96.60;;;;;;5038853;28;20044;-68
2022/07/18 10:18:03;;;;;;;3.60;1.95;;;25.10;97.20;;;;;;5046915;28;20049;-68
2022/07/18 10:20:42;;;;;;;5.72;2.35;;;25.20;96.00;;;;;;5037678;28;20041;-69
2022/07/18 10:23:16;;;;;;;7.30;2.30;;;25.40;94.90;;;;;;5023689;28;20054;-68
2022/07/18 10:25:42;;;;;;;5.03;2.20;;;25.40;94.20;;;;;;5038140;28;20548;-67
2022/07/18 10:28:11;;;;;;;5.03;2.10;;;25.40;94.80;;;;;;5031188;28;20052;-68
2022/07/18 10:30:47;;;;;;;8.13;2.53;;;25.40;94.60;;;;;;5027915;28;20052;-67
2022/07/18 10:33:49;;;;;;;7.60;2.28;;;25.60;93.50;;;;;;5043027;28;20053;-67
2022/07/18 10:36:19;;;;;;;7.93;2.20;;;25.60;94.60;;;;;;4935560;29;20083;-67
2022/07/18 10:39:06;;;;;;;9.02;2.78;;;25.60;94.00;;;;;;4950109;28;20047;-67
2022/07/18 10:41:33;;;;;;;6.03;2.65;;;25.50;93.50;;;;;;4940861;29;20130;-68
2022/07/18 10:43:59;;;;;;;4.03;2.30;;;25.60;93.70;;;;;;4928597;29;20065;-67
2022/07/18 10:47:03;;;;;;;5.85;2.70;;;25.60;94.30;;;;;;4954636;29;20103;-68
2022/07/18 10:49:47;;;;;;;7.43;2.65;;;25.80;92.30;;;;;;4941817;29;20065;-67
2022/07/18 10:52:38;;;;;;;8.25;2.85;;;25.80;92.10;;;;;;4957398;28;20038;-67
2022/07/18 10:55:04;;;;;;;7.45;2.88;;;25.90;92.70;;;;;;4926101;28;20070;-67
2022/07/18 10:57:31;;;;;;;9.98;2.67;;;26.00;91.60;;;;;;4974973;28;20078;-67
2022/07/18 11:00:08;;;;;;;7.25;2.50;;;26.00;93.20;;;;;;4947569;28;20055;-67
2022/07/18 11:02:45;;;;;;;6.13;2.95;;;26.20;90.40;;;;;;4968913;28;20037;-67
2022/07/18 11:05:26;;;;;;;6.25;2.80;;;26.10;89.40;;;;;;4968396;28;20498;-67
2022/07/18 11:07:57;;;;;;;5.15;2.58;;;26.20;90.80;;;;;;4967915;28;20058;-68
2022/07/18 11:10:42;;;;;;;7.05;3.22;;;26.20;91.00;;;;;;5018088;28;20084;-67
2022/07/18 11:13:29;;;;;;;9.35;3.40;;;26.40;91.30;;;;;;5051448;28;20117;-67
2022/07/18 11:15:56;;;;;;;5.88;3.35;;;26.40;90.60;;;;;;5069768;28;20053;-67
2022/07/18 11:18:22;;;;;;;6.75;3.05;;;26.40;90.80;;;;;;5046504;28;20049;-67
2022/07/18 11:20:48;;;;;;;7.22;3.28;;;26.60;90.20;;;;;;5051608;28;20060;-67
2022/07/18 11:23:26;;;;;;;7.40;3.65;;;26.60;90.10;;;;;;5031462;28;20053;-67
2022/07/18 11:25:55;;;;;;;6.10;2.90;;;26.60;88.80;;;;;;5039728;28;20050;-68
2022/07/18 11:28:22;;;;;;;;;;;26.50;90.30;;;;;;5013960;28;20081;-67
2022/07/18 11:31:06;;;;;;;4.78;2.72;;;26.80;89.60;;;;;;5022551;28;20018;-67
2022/07/18 11:33:35;;;;;;;6.47;3.65;;;26.70;90.10;;;;;;5028797;28;20049;-69
2022/07/18 11:36:04;;;;;;;6.20;3.75;;;26.70;88.20;;;;;;5023314;28;20057;-69
2022/07/18 11:38:29;;;;;;;6.85;3.25;;;26.80;87.60;;;;;;5032277;28;20049;-70
2022/07/18 11:40:55;;;;;;;4.22;3.10;;;26.90;86.90;;;;;;5067885;28;20051;-69
2022/07/18 11:43:23;;;;;;;5.80;4.10;;;26.90;87.40;;;;;;5035217;28;20158;-68
2022/07/18 11:46:08;;;;;;;5.88;3.40;;;27.00;87.10;;;;;;5043692;28;20052;-68
2022/07/18 11:48:35;;;;;;;5.25;3.35;;;27.10;89.60;;;;;;5056229;28;20068;-69
2022/07/18 11:51:02;;;;;;;6.38;2.78;;;27.40;87.50;;;;;;5056756;28;20052;-69
2022/07/18 11:53:29;;;;;;;7.18;3.67;;;27.40;88.00;;;;;;5045744;28;20057;-69
2022/07/18 11:55:55;;;;;;;5.68;3.78;;;27.60;87.00;;;;;;5061315;28;20050;-69
2022/07/18 11:58:22;;;;;;;5.32;2.83;;;27.60;86.70;;;;;;5044910;28;20076;-69
2022/07/18 12:00:48;;;;;;;8.45;3.20;;;27.60;85.00;;;;;;5038635;28;20052;-69
2022/07/18 12:03:19;;;;;;;5.15;3.28;;;27.70;86.30;;;;;;5050299;28;20493;-69
2022/07/18 12:05:48;;;;;;;5.25;3.63;;;28.00;84.40;;;;;;5060668;28;20046;-69
2022/07/18 12:08:29;;;;;;;6.53;3.35;;;28.10;82.70;;;;;;5064017;28;20043;-69
2022/07/18 12:11:08;;;;;;;6.00;3.47;;;28.20;82.50;;;;;;5063570;28;20071;-69
2022/07/18 12:13:46;;;;;;;7.18;3.38;;;28.30;81.00;;;;;;5065955;28;20048;-68
2022/07/18 12:16:30;;;;;;;7.65;4.10;;;28.50;81.90;;;;;;5061588;28;20136;-69
2022/07/18 12:19:05;;;;;;;6.85;3.45;;;28.40;82.30;;;;;;5067594;28;20052;-67
2022/07/18 12:21:49;;;;;;;5.95;3.47;;;28.40;82.50;;;;;;5064528;28;20036;-70
2022/07/18 12:24:39;;;;;;;6.68;3.80;;;28.50;82.20;;;;;;5025762;28;20367;-70
2022/07/18 12:27:12;;;;;;;5.45;3.88;;;28.50;80.90;;;;;;5043259;28;20045;-70
2022/07/18 12:29:54;;;;;;;7.78;3.97;;;28.40;79.70;;;;;;5046194;28;20049;-68
2022/07/18 12:32:24;;;;;;;5.53;3.40;;;28.60;79.30;;;;;;5054482;28;20049;-68
2022/07/18 12:35:02;;;;;;;6.05;3.70;;;28.60;79.60;;;;;;5042124;28;20114;-69
2022/07/18 12:37:32;;;;;;;5.97;3.63;;;28.50;78.50;;;;;;5015402;28;20058;-69
2022/07/18 12:40:00;;;;;;;6.18;3.50;;;28.50;79.10;;;;;;5004165;28;20046;-69
2022/07/18 12:42:40;;;;;;;9.45;3.88;;;28.60;79.00;;;;;;5024678;28;20055;-68
2022/07/18 12:45:10;;;;;;;5.85;3.53;;;28.80;77.10;;;;;;5027223;28;20041;-68
2022/07/18 12:47:36;;;;;;;6.75;3.70;;;28.50;77.80;;;;;;5028604;28;20060;-69
2022/07/18 12:50:03;;;;;;;5.68;3.67;;;28.40;78.80;;;;;;5007610;28;20050;-67